sensor_id;sensor_type;location;lat;lon;timestamp;temperature;humidity
35129;DHT22;21301;43.626;10.580;2022-08-21T00:02:22;26.20;99.90
35129;DHT22;21301;43.626;10.580;2022-08-21T00:04:49;26.20;99.90
35129;DHT22;21301;43.626;10.580;2022-08-21T00:07:16;26.10;99.90
35129;DHT22;21301;43.626;10.580;2022-08-21T00:09:42;26.10;99.90
35129;DHT22;21301;43.626;10.580;2022-08-21T00:12:09;26.10;99.90
35129;DHT22;21301;43.626;10.580;2022-08-21T00:14:35;26.10;99.90
35129;DHT22;21301;43.626;10.580;2022-08-21T00:17:02;26.20;99.90
35129;DHT22;21301;43.626;10.580;2022-08-21T00:19:29;26.10;99.90
35129;DHT22;21301;43.626;10.580;2022-08-21T00:21:55;26.10;99.90
35129;DHT22;21301;43.626;10.580;2022-08-21T00:24:22;26.00;99.90
35129;DHT22;21301;43.626;10.580;2022-08-21T00:26:49;26.00;99.90
35129;DHT22;21301;43.626;10.580;2022-08-21T00:29:15;25.90;99.90
35129;DHT22;21301;43.626;10.580;2022-08-21T00:31:42;25.70;99.90
35129;DHT22;21301;43.626;10.580;2022-08-21T00:34:08;25.50;99.90
35129;DHT22;21301;43.626;10.580;2022-08-21T00:36:35;25.40;99.90
35129;DHT22;21301;43.626;10.580;2022-08-21T00:39:03;25.40;99.90
35129;DHT22;21301;43.626;10.580;2022-08-21T00:41:29;25.30;99.90
35129;DHT22;21301;43.626;10.580;2022-08-21T00:43:55;25.30;99.90
35129;DHT22;21301;43.626;10.580;2022-08-21T00:46:21;25.20;99.90
35129;DHT22;21301;43.626;10.580;2022-08-21T00:48:47;25.00;99.90
35129;DHT22;21301;43.626;10.580;2022-08-21T00:51:20;25.10;99.90
35129;DHT22;21301;43.626;10.580;2022-08-21T00:53:51;25.20;99.90
35129;DHT22;21301;43.626;10.580;2022-08-21T00:56:19;25.40;99.90
35129;DHT22;21301;43.626;10.580;2022-08-21T00:58:46;25.20;99.90
35129;DHT22;21301;43.626;10.580;2022-08-21T01:01:13;25.10;99.90
35129;DHT22;21301;43.626;10.580;2022-08-21T01:03:40;25.00;99.90
35129;DHT22;21301;43.626;10.580;2022-08-21T01:06:07;24.90;99.90
35129;DHT22;21301;43.626;10.580;2022-08-21T01:08:33;24.70;99.90
35129;DHT22;21301;43.626;10.580;2022-08-21T01:11:00;24.40;99.90
35129;DHT22;21301;43.626;10.580;2022-08-21T01:13:28;24.20;99.90
35129;DHT22;21301;43.626;10.580;2022-08-21T01:15:58;24.00;99.90
35129;DHT22;21301;43.626;10.580;2022-08-21T01:18:26;23.90;99.90
35129;DHT22;21301;43.626;10.580;2022-08-21T01:23:28;24.00;99.90
35129;DHT22;21301;43.626;10.580;2022-08-21T01:25:53;24.10;99.90
35129;DHT22;21301;43.626;10.580;2022-08-21T01:28:19;24.10;99.90
35129;DHT22;21301;43.626;10.580;2022-08-21T01:30:47;24.10;99.90
35129;DHT22;21301;43.626;10.580;2022-08-21T01:33:14;24.00;99.90
35129;DHT22;21301;43.626;10.580;2022-08-21T01:35:40;23.80;99.90
35129;DHT22;21301;43.626;10.580;2022-08-21T01:38:05;23.50;99.90
35129;DHT22;21301;43.626;10.580;2022-08-21T01:40:31;23.30;99.90
35129;DHT22;21301;43.626;10.580;2022-08-21T01:42:57;23.20;99.90
35129;DHT22;21301;43.626;10.580;2022-08-21T01:45:23;23.20;99.90
35129;DHT22;21301;43.626;10.580;2022-08-21T01:47:52;23.30;99.90
35129;DHT22;21301;43.626;10.580;2022-08-21T01:50:19;23.20;99.90
35129;DHT22;21301;43.626;10.580;2022-08-21T01:52:45;23.20;99.90
35129;DHT22;21301;43.626;10.580;2022-08-21T01:55:16;23.10;99.90
35129;DHT22;21301;43.626;10.580;2022-08-21T01:57:42;23.10;99.90
35129;DHT22;21301;43.626;10.580;2022-08-21T02:00:13;23.00;99.90
35129;DHT22;21301;43.626;10.580;2022-08-21T02:02:40;22.90;99.90
35129;DHT22;21301;43.626;10.580;2022-08-21T02:05:08;22.90;99.90
35129;DHT22;21301;43.626;10.580;2022-08-21T02:07:40;22.90;99.90
35129;DHT22;21301;43.626;10.580;2022-08-21T02:10:08;22.90;99.90
35129;DHT22;21301;43.626;10.580;2022-08-21T02:12:35;22.90;99.90
35129;DHT22;21301;43.626;10.580;2022-08-21T02:15:03;23.00;99.90
35129;DHT22;21301;43.626;10.580;2022-08-21T02:17:41;23.10;99.90
35129;DHT22;21301;43.626;10.580;2022-08-21T02:20:09;23.10;99.90
35129;DHT22;21301;43.626;10.580;2022-08-21T02:22:35;23.30;99.90
35129;DHT22;21301;43.626;10.580;2022-08-21T02:25:01;23.30;99.90
35129;DHT22;21301;43.626;10.580;2022-08-21T02:27:27;23.20;99.90
35129;DHT22;21301;43.626;10.580;2022-08-21T02:29:55;23.20;99.90
35129;DHT22;21301;43.626;10.580;2022-08-21T02:32:22;23.30;99.90
35129;DHT22;21301;43.626;10.580;2022-08-21T02:34:47;23.20;99.90
35129;DHT22;21301;43.626;10.580;2022-08-21T02:37:14;23.30;99.90
35129;DHT22;21301;43.626;10.580;2022-08-21T02:39:40;23.40;99.90
35129;DHT22;21301;43.626;10.580;2022-08-21T02:42:06;23.40;99.90
35129;DHT22;21301;43.626;10.580;2022-08-21T02:44:32;23.30;99.90
35129;DHT22;21301;43.626;10.580;2022-08-21T02:46:58;23.20;99.90
35129;DHT22;21301;43.626;10.580;2022-08-21T02:49:23;23.30;99.90
35129;DHT22;21301;43.626;10.580;2022-08-21T02:51:49;23.50;99.90
35129;DHT22;21301;43.626;10.580;2022-08-21T02:54:15;23.70;99.90
35129;DHT22;21301;43.626;10.580;2022-08-21T02:56:41;23.60;99.90
35129;DHT22;21301;43.626;10.580;2022-08-21T02:59:07;23.60;99.90
35129;DHT22;21301;43.626;10.580;2022-08-21T03:01:33;23.60;99.90
35129;DHT22;21301;43.626;10.580;2022-08-21T03:03:59;23.60;99.90
35129;DHT22;21301;43.626;10.580;2022-08-21T03:06:25;23.70;99.90
35129;DHT22;21301;43.626;10.580;2022-08-21T03:08:50;23.70;99.90
35129;DHT22;21301;43.626;10.580;2022-08-21T03:11:16;23.80;99.90
35129;DHT22;21301;43.626;10.580;2022-08-21T03:13:45;23.80;99.90
35129;DHT22;21301;43.626;10.580;2022-08-21T03:16:11;23.80;99.90
35129;DHT22;21301;43.626;10.580;2022-08-21T03:18:38;23.90;99.90
35129;DHT22;21301;43.626;10.580;2022-08-21T03:21:04;23.90;99.90
35129;DHT22;21301;43.626;10.580;2022-08-21T03:23:30;23.90;99.90
35129;DHT22;21301;43.626;10.580;2022-08-21T03:25:56;23.80;99.90
35129;DHT22;21301;43.626;10.580;2022-08-21T03:28:23;23.90;99.90
35129;DHT22;21301;43.626;10.580;2022-08-21T03:30:50;23.80;99.90
35129;DHT22;21301;43.626;10.580;2022-08-21T03:33:17;23.70;99.90
35129;DHT22;21301;43.626;10.580;2022-08-21T03:35:45;23.70;99.90
35129;DHT22;21301;43.626;10.580;2022-08-21T03:38:12;23.60;99.90
35129;DHT22;21301;43.626;10.580;2022-08-21T03:40:38;23.60;99.90
35129;DHT22;21301;43.626;10.580;2022-08-21T03:43:04;23.40;99.90
35129;DHT22;21301;43.626;10.580;2022-08-21T03:45:30;23.30;99.90
35129;DHT22;21301;43.626;10.580;2022-08-21T03:47:57;23.20;99.90
35129;DHT22;21301;43.626;10.580;2022-08-21T03:50:31;23.00;99.90
35129;DHT22;21301;43.626;10.580;2022-08-21T03:52:57;22.90;99.90
35129;DHT22;21301;43.626;10.580;2022-08-21T03:55:24;23.00;99.90
35129;DHT22;21301;43.626;10.580;2022-08-21T03:57:50;23.00;99.90
35129;DHT22;21301;43.626;10.580;2022-08-21T04:00:17;23.10;99.90
35129;DHT22;21301;43.626;10.580;2022-08-21T04:02:45;23.10;99.90
35129;DHT22;21301;43.626;10.580;2022-08-21T04:05:13;23.00;99.90
35129;DHT22;21301;43.626;10.580;2022-08-21T04:07:39;22.90;99.90
35129;DHT22;21301;43.626;10.580;2022-08-21T04:10:06;22.90;99.90
35129;DHT22;21301;43.626;10.580;2022-08-21T04:12:32;22.70;99.90
35129;DHT22;21301;43.626;10.580;2022-08-21T04:14:58;22.70;99.90
35129;DHT22;21301;43.626;10.580;2022-08-21T04:17:24;22.60;99.90
35129;DHT22;21301;43.626;10.580;2022-08-21T04:19:50;22.60;99.90
35129;DHT22;21301;43.626;10.580;2022-08-21T04:22:16;22.50;99.90
35129;DHT22;21301;43.626;10.580;2022-08-21T04:24:42;22.50;99.90
35129;DHT22;21301;43.626;10.580;2022-08-21T04:27:08;22.50;99.90
35129;DHT22;21301;43.626;10.580;2022-08-21T04:29:34;22.40;99.90
35129;DHT22;21301;43.626;10.580;2022-08-21T04:32:00;22.30;99.90
35129;DHT22;21301;43.626;10.580;2022-08-21T04:34:26;22.30;99.90
35129;DHT22;21301;43.626;10.580;2022-08-21T04:36:51;22.30;99.90
35129;DHT22;21301;43.626;10.580;2022-08-21T04:39:17;22.30;99.90
35129;DHT22;21301;43.626;10.580;2022-08-21T04:41:43;22.30;99.90
35129;DHT22;21301;43.626;10.580;2022-08-21T04:44:09;22.40;99.90
35129;DHT22;21301;43.626;10.580;2022-08-21T04:46:35;22.40;99.90
35129;DHT22;21301;43.626;10.580;2022-08-21T04:49:01;22.60;99.90
35129;DHT22;21301;43.626;10.580;2022-08-21T04:51:31;22.70;99.90
35129;DHT22;21301;43.626;10.580;2022-08-21T04:56:36;22.80;99.90
35129;DHT22;21301;43.626;10.580;2022-08-21T04:59:06;22.90;99.90
35129;DHT22;21301;43.626;10.580;2022-08-21T05:01:37;22.80;99.90
35129;DHT22;21301;43.626;10.580;2022-08-21T05:04:05;22.90;99.90
35129;DHT22;21301;43.626;10.580;2022-08-21T05:06:35;22.80;99.90
35129;DHT22;21301;43.626;10.580;2022-08-21T05:09:03;22.70;99.90
35129;DHT22;21301;43.626;10.580;2022-08-21T05:11:30;22.70;99.90
35129;DHT22;21301;43.626;10.580;2022-08-21T05:13:56;22.60;99.90
35129;DHT22;21301;43.626;10.580;2022-08-21T05:16:22;22.50;99.90
35129;DHT22;21301;43.626;10.580;2022-08-21T05:18:47;22.50;99.90
35129;DHT22;21301;43.626;10.580;2022-08-21T05:21:13;22.60;99.90
35129;DHT22;21301;43.626;10.580;2022-08-21T05:23:39;22.50;99.90
35129;DHT22;21301;43.626;10.580;2022-08-21T05:26:05;22.60;99.90
35129;DHT22;21301;43.626;10.580;2022-08-21T05:28:31;22.60;99.90
35129;DHT22;21301;43.626;10.580;2022-08-21T05:30:57;22.60;99.90
35129;DHT22;21301;43.626;10.580;2022-08-21T05:33:24;22.70;99.90
35129;DHT22;21301;43.626;10.580;2022-08-21T05:35:51;22.80;99.90
35129;DHT22;21301;43.626;10.580;2022-08-21T05:38:18;23.00;99.90
35129;DHT22;21301;43.626;10.580;2022-08-21T05:40:45;23.20;99.90
35129;DHT22;21301;43.626;10.580;2022-08-21T05:43:11;23.20;99.90
35129;DHT22;21301;43.626;10.580;2022-08-21T05:45:37;23.30;99.90
35129;DHT22;21301;43.626;10.580;2022-08-21T05:48:28;23.50;99.90
35129;DHT22;21301;43.626;10.580;2022-08-21T05:50:54;23.60;99.90
35129;DHT22;21301;43.626;10.580;2022-08-21T05:53:21;23.60;99.90
35129;DHT22;21301;43.626;10.580;2022-08-21T05:55:48;23.70;99.90
35129;DHT22;21301;43.626;10.580;2022-08-21T05:58:16;23.60;99.90
35129;DHT22;21301;43.626;10.580;2022-08-21T06:00:44;23.60;99.90
35129;DHT22;21301;43.626;10.580;2022-08-21T06:03:19;23.70;99.90
35129;DHT22;21301;43.626;10.580;2022-08-21T06:05:46;23.70;99.90
35129;DHT22;21301;43.626;10.580;2022-08-21T06:08:16;23.80;99.90
35129;DHT22;21301;43.626;10.580;2022-08-21T06:10:43;23.80;99.90
35129;DHT22;21301;43.626;10.580;2022-08-21T06:13:10;23.80;99.90
35129;DHT22;21301;43.626;10.580;2022-08-21T06:15:36;23.80;99.90
35129;DHT22;21301;43.626;10.580;2022-08-21T06:18:02;23.70;99.90
35129;DHT22;21301;43.626;10.580;2022-08-21T06:20:28;23.60;99.90
35129;DHT22;21301;43.626;10.580;2022-08-21T06:22:54;23.70;99.90
35129;DHT22;21301;43.626;10.580;2022-08-21T06:25:20;23.70;99.90
35129;DHT22;21301;43.626;10.580;2022-08-21T06:27:46;24.00;99.90
35129;DHT22;21301;43.626;10.580;2022-08-21T06:30:12;23.90;99.90
35129;DHT22;21301;43.626;10.580;2022-08-21T06:32:39;24.00;99.90
35129;DHT22;21301;43.626;10.580;2022-08-21T06:35:06;24.00;99.90
35129;DHT22;21301;43.626;10.580;2022-08-21T06:37:32;24.00;99.90
35129;DHT22;21301;43.626;10.580;2022-08-21T06:39:58;23.80;99.90
35129;DHT22;21301;43.626;10.580;2022-08-21T06:42:24;23.90;99.90
35129;DHT22;21301;43.626;10.580;2022-08-21T06:44:52;24.00;99.90
35129;DHT22;21301;43.626;10.580;2022-08-21T06:47:18;24.10;99.90
35129;DHT22;21301;43.626;10.580;2022-08-21T06:49:44;24.20;99.90
35129;DHT22;21301;43.626;10.580;2022-08-21T06:52:11;24.10;99.90
35129;DHT22;21301;43.626;10.580;2022-08-21T06:54:38;23.90;99.90
35129;DHT22;21301;43.626;10.580;2022-08-21T06:57:04;23.90;99.90
35129;DHT22;21301;43.626;10.580;2022-08-21T06:59:30;23.80;99.90
35129;DHT22;21301;43.626;10.580;2022-08-21T07:01:58;24.00;99.90
35129;DHT22;21301;43.626;10.580;2022-08-21T07:04:24;23.90;99.90
35129;DHT22;21301;43.626;10.580;2022-08-21T07:06:50;23.90;99.90
35129;DHT22;21301;43.626;10.580;2022-08-21T07:09:16;24.00;99.90
35129;DHT22;21301;43.626;10.580;2022-08-21T07:11:42;24.20;99.90
35129;DHT22;21301;43.626;10.580;2022-08-21T07:14:08;24.50;99.90
35129;DHT22;21301;43.626;10.580;2022-08-21T07:16:34;24.70;99.90
35129;DHT22;21301;43.626;10.580;2022-08-21T07:18:59;24.90;99.90
35129;DHT22;21301;43.626;10.580;2022-08-21T07:21:26;24.90;99.90
35129;DHT22;21301;43.626;10.580;2022-08-21T07:23:52;25.60;99.90
35129;DHT22;21301;43.626;10.580;2022-08-21T07:26:21;25.70;99.90
35129;DHT22;21301;43.626;10.580;2022-08-21T07:28:48;26.10;99.90
35129;DHT22;21301;43.626;10.580;2022-08-21T07:31:16;26.10;99.90
35129;DHT22;21301;43.626;10.580;2022-08-21T07:33:43;26.20;99.90
35129;DHT22;21301;43.626;10.580;2022-08-21T07:36:09;26.30;99.90
35129;DHT22;21301;43.626;10.580;2022-08-21T07:38:35;26.40;99.90
35129;DHT22;21301;43.626;10.580;2022-08-21T07:41:03;26.90;99.90
35129;DHT22;21301;43.626;10.580;2022-08-21T07:43:31;27.10;99.90
35129;DHT22;21301;43.626;10.580;2022-08-21T07:45:57;27.30;99.90
35129;DHT22;21301;43.626;10.580;2022-08-21T07:48:23;27.40;99.90
35129;DHT22;21301;43.626;10.580;2022-08-21T07:50:49;27.60;99.90
35129;DHT22;21301;43.626;10.580;2022-08-21T07:53:17;27.80;99.90
35129;DHT22;21301;43.626;10.580;2022-08-21T07:55:45;27.90;99.90
35129;DHT22;21301;43.626;10.580;2022-08-21T07:58:11;28.20;99.90
35129;DHT22;21301;43.626;10.580;2022-08-21T08:00:37;28.00;99.90
35129;DHT22;21301;43.626;10.580;2022-08-21T08:03:03;28.50;99.90
35129;DHT22;21301;43.626;10.580;2022-08-21T08:05:30;28.70;99.90
35129;DHT22;21301;43.626;10.580;2022-08-21T08:07:56;28.60;99.90
35129;DHT22;21301;43.626;10.580;2022-08-21T08:10:23;28.90;99.90
35129;DHT22;21301;43.626;10.580;2022-08-21T08:12:48;28.90;99.90
35129;DHT22;21301;43.626;10.580;2022-08-21T08:15:20;29.10;99.90
35129;DHT22;21301;43.626;10.580;2022-08-21T08:17:46;28.80;99.90
35129;DHT22;21301;43.626;10.580;2022-08-21T08:20:14;28.50;99.90
35129;DHT22;21301;43.626;10.580;2022-08-21T08:22:41;28.60;99.90
35129;DHT22;21301;43.626;10.580;2022-08-21T08:25:09;28.40;99.90
35129;DHT22;21301;43.626;10.580;2022-08-21T08:27:35;28.80;99.90
35129;DHT22;21301;43.626;10.580;2022-08-21T08:30:01;29.30;99.90
35129;DHT22;21301;43.626;10.580;2022-08-21T08:32:27;29.80;99.90
35129;DHT22;21301;43.626;10.580;2022-08-21T08:34:53;29.80;99.90
35129;DHT22;21301;43.626;10.580;2022-08-21T08:37:20;30.40;99.90
35129;DHT22;21301;43.626;10.580;2022-08-21T08:39:46;30.70;99.90
35129;DHT22;21301;43.626;10.580;2022-08-21T08:42:16;31.00;99.90
35129;DHT22;21301;43.626;10.580;2022-08-21T08:44:44;30.40;99.90
35129;DHT22;21301;43.626;10.580;2022-08-21T08:47:14;30.80;99.90
35129;DHT22;21301;43.626;10.580;2022-08-21T08:49:49;31.10;99.90
35129;DHT22;21301;43.626;10.580;2022-08-21T08:52:22;30.70;99.90
35129;DHT22;21301;43.626;10.580;2022-08-21T08:57:24;31.20;99.90
35129;DHT22;21301;43.626;10.580;2022-08-21T08:59:54;31.20;99.90
35129;DHT22;21301;43.626;10.580;2022-08-21T09:02:22;31.20;99.90
35129;DHT22;21301;43.626;10.580;2022-08-21T09:04:53;31.20;99.90
35129;DHT22;21301;43.626;10.580;2022-08-21T09:10:20;32.00;99.90
35129;DHT22;21301;43.626;10.580;2022-08-21T09:25:41;30.70;99.90
35129;DHT22;21301;43.626;10.580;2022-08-21T09:28:09;30.70;99.90
35129;DHT22;21301;43.626;10.580;2022-08-21T09:30:40;30.90;99.90
35129;DHT22;21301;43.626;10.580;2022-08-21T09:33:06;30.70;99.90
35129;DHT22;21301;43.626;10.580;2022-08-21T09:35:32;30.70;99.90
35129;DHT22;21301;43.626;10.580;2022-08-21T09:38:06;30.40;99.90
35129;DHT22;21301;43.626;10.580;2022-08-21T09:40:37;30.10;99.90
35129;DHT22;21301;43.626;10.580;2022-08-21T09:45:35;30.40;99.90
35129;DHT22;21301;43.626;10.580;2022-08-21T09:48:13;30.40;99.90
35129;DHT22;21301;43.626;10.580;2022-08-21T09:50:40;30.70;99.90
35129;DHT22;21301;43.626;10.580;2022-08-21T09:53:28;30.80;99.90
35129;DHT22;21301;43.626;10.580;2022-08-21T09:56:03;31.10;99.90
35129;DHT22;21301;43.626;10.580;2022-08-21T09:58:49;30.50;99.90
35129;DHT22;21301;43.626;10.580;2022-08-21T10:01:22;30.30;99.90
35129;DHT22;21301;43.626;10.580;2022-08-21T10:03:49;30.10;99.90
35129;DHT22;21301;43.626;10.580;2022-08-21T10:06:28;30.10;99.90
35129;DHT22;21301;43.626;10.580;2022-08-21T10:09:10;30.40;99.90
35129;DHT22;21301;43.626;10.580;2022-08-21T10:11:36;30.20;99.90
35129;DHT22;21301;43.626;10.580;2022-08-21T10:20:25;29.60;99.90
35129;DHT22;21301;43.626;10.580;2022-08-21T10:23:01;30.00;99.90
35129;DHT22;21301;43.626;10.580;2022-08-21T10:25:38;30.10;99.90
35129;DHT22;21301;43.626;10.580;2022-08-21T10:33:43;29.80;99.90
35129;DHT22;21301;43.626;10.580;2022-08-21T10:36:17;30.00;99.90
35129;DHT22;21301;43.626;10.580;2022-08-21T10:42:03;30.30;99.90
35129;DHT22;21301;43.626;10.580;2022-08-21T10:44:49;29.80;99.90
35129;DHT22;21301;43.626;10.580;2022-08-21T10:47:36;29.80;99.90
35129;DHT22;21301;43.626;10.580;2022-08-21T10:56:19;30.60;99.90
35129;DHT22;21301;43.626;10.580;2022-08-21T11:06:53;31.30;99.90
35129;DHT22;21301;43.626;10.580;2022-08-21T11:09:24;30.80;99.90
35129;DHT22;21301;43.626;10.580;2022-08-21T11:12:06;30.60;99.90
35129;DHT22;21301;43.626;10.580;2022-08-21T11:26:56;30.70;99.90
35129;DHT22;21301;43.626;10.580;2022-08-21T11:29:29;30.80;99.90
35129;DHT22;21301;43.626;10.580;2022-08-21T11:38:11;30.80;99.90
35129;DHT22;21301;43.626;10.580;2022-08-21T11:43:42;30.50;99.90
35129;DHT22;21301;43.626;10.580;2022-08-21T12:00:22;29.70;99.90
35129;DHT22;21301;43.626;10.580;2022-08-21T12:02:58;29.90;99.90
35129;DHT22;21301;43.626;10.580;2022-08-21T12:06:14;30.50;99.90
35129;DHT22;21301;43.626;10.580;2022-08-21T12:08:39;30.40;99.90
35129;DHT22;21301;43.626;10.580;2022-08-21T12:16:36;30.90;99.90
35129;DHT22;21301;43.626;10.580;2022-08-21T12:21:33;31.40;99.90
35129;DHT22;21301;43.626;10.580;2022-08-21T12:24:15;31.60;99.90
35129;DHT22;21301;43.626;10.580;2022-08-21T12:26:50;31.50;99.90
35129;DHT22;21301;43.626;10.580;2022-08-21T12:29:28;31.10;99.90
35129;DHT22;21301;43.626;10.580;2022-08-21T12:32:02;31.00;99.90
35129;DHT22;21301;43.626;10.580;2022-08-21T12:34:42;30.80;99.90
35129;DHT22;21301;43.626;10.580;2022-08-21T12:37:19;30.80;99.90
35129;DHT22;21301;43.626;10.580;2022-08-21T12:39:48;30.50;99.90
35129;DHT22;21301;43.626;10.580;2022-08-21T12:42:19;30.70;99.90
35129;DHT22;21301;43.626;10.580;2022-08-21T12:44:51;31.00;99.90
35129;DHT22;21301;43.626;10.580;2022-08-21T12:47:44;31.10;99.90
35129;DHT22;21301;43.626;10.580;2022-08-21T12:50:17;30.80;99.90
35129;DHT22;21301;43.626;10.580;2022-08-21T12:53:03;30.90;99.90
35129;DHT22;21301;43.626;10.580;2022-08-21T12:55:32;30.70;99.90
35129;DHT22;21301;43.626;10.580;2022-08-21T12:57:59;30.50;99.90
35129;DHT22;21301;43.626;10.580;2022-08-21T13:00:28;30.50;99.90
35129;DHT22;21301;43.626;10.580;2022-08-21T13:02:55;30.40;99.90
35129;DHT22;21301;43.626;10.580;2022-08-21T13:26:15;30.50;99.90
35129;DHT22;21301;43.626;10.580;2022-08-21T13:28:41;30.50;99.90
35129;DHT22;21301;43.626;10.580;2022-08-21T13:31:10;30.40;99.90
35129;DHT22;21301;43.626;10.580;2022-08-21T13:33:37;30.50;99.90
35129;DHT22;21301;43.626;10.580;2022-08-21T13:36:07;30.50;99.90
35129;DHT22;21301;43.626;10.580;2022-08-21T13:38:35;30.50;99.90
35129;DHT22;21301;43.626;10.580;2022-08-21T13:41:21;30.50;99.90
35129;DHT22;21301;43.626;10.580;2022-08-21T13:46:39;30.20;99.90
35129;DHT22;21301;43.626;10.580;2022-08-21T13:49:06;30.10;99.90
35129;DHT22;21301;43.626;10.580;2022-08-21T13:51:35;30.00;99.90
35129;DHT22;21301;43.626;10.580;2022-08-21T13:54:01;29.60;99.90
35129;DHT22;21301;43.626;10.580;2022-08-21T13:56:31;29.30;99.90
35129;DHT22;21301;43.626;10.580;2022-08-21T13:59:00;29.20;99.90
35129;DHT22;21301;43.626;10.580;2022-08-21T14:06:34;29.30;99.90
35129;DHT22;21301;43.626;10.580;2022-08-21T14:09:12;29.30;99.90
35129;DHT22;21301;43.626;10.580;2022-08-21T14:11:38;29.40;99.90
35129;DHT22;21301;43.626;10.580;2022-08-21T14:14:28;29.60;99.90
35129;DHT22;21301;43.626;10.580;2022-08-21T14:17:04;29.70;99.90
35129;DHT22;21301;43.626;10.580;2022-08-21T14:19:43;29.80;99.90
35129;DHT22;21301;43.626;10.580;2022-08-21T14:22:43;29.80;99.90
35129;DHT22;21301;43.626;10.580;2022-08-21T14:25:36;29.80;99.90
35129;DHT22;21301;43.626;10.580;2022-08-21T14:28:15;30.10;99.90
35129;DHT22;21301;43.626;10.580;2022-08-21T14:30:43;30.10;99.90
35129;DHT22;21301;43.626;10.580;2022-08-21T14:33:12;30.10;99.90
35129;DHT22;21301;43.626;10.580;2022-08-21T14:35:40;29.90;99.90
35129;DHT22;21301;43.626;10.580;2022-08-21T14:38:19;29.70;99.90
35129;DHT22;21301;43.626;10.580;2022-08-21T14:40:51;29.60;99.90
35129;DHT22;21301;43.626;10.580;2022-08-21T14:43:18;29.60;99.90
35129;DHT22;21301;43.626;10.580;2022-08-21T14:45:45;29.50;99.90
35129;DHT22;21301;43.626;10.580;2022-08-21T14:48:11;29.40;99.90
35129;DHT22;21301;43.626;10.580;2022-08-21T14:50:36;29.40;99.90
35129;DHT22;21301;43.626;10.580;2022-08-21T14:53:03;29.40;99.90
35129;DHT22;21301;43.626;10.580;2022-08-21T14:55:30;29.40;99.90
35129;DHT22;21301;43.626;10.580;2022-08-21T14:58:16;29.60;99.90
35129;DHT22;21301;43.626;10.580;2022-08-21T15:00:42;29.90;99.90
35129;DHT22;21301;43.626;10.580;2022-08-21T15:03:09;30.20;99.90
35129;DHT22;21301;43.626;10.580;2022-08-21T15:05:35;30.50;99.90
35129;DHT22;21301;43.626;10.580;2022-08-21T15:08:01;30.50;99.90
35129;DHT22;21301;43.626;10.580;2022-08-21T15:10:27;30.70;99.90
35129;DHT22;21301;43.626;10.580;2022-08-21T15:12:55;30.70;99.90
35129;DHT22;21301;43.626;10.580;2022-08-21T15:15:21;30.70;99.90
35129;DHT22;21301;43.626;10.580;2022-08-21T15:17:46;30.80;99.90
35129;DHT22;21301;43.626;10.580;2022-08-21T15:20:12;31.00;99.90
35129;DHT22;21301;43.626;10.580;2022-08-21T15:22:39;30.90;99.90
35129;DHT22;21301;43.626;10.580;2022-08-21T15:25:05;30.80;99.90
35129;DHT22;21301;43.626;10.580;2022-08-21T15:27:31;30.60;99.90
35129;DHT22;21301;43.626;10.580;2022-08-21T15:29:57;30.70;99.90
35129;DHT22;21301;43.626;10.580;2022-08-21T15:32:27;30.60;99.90
35129;DHT22;21301;43.626;10.580;2022-08-21T15:34:55;30.70;99.90
35129;DHT22;21301;43.626;10.580;2022-08-21T15:37:22;30.90;99.90
35129;DHT22;21301;43.626;10.580;2022-08-21T15:39:50;31.00;99.90
35129;DHT22;21301;43.626;10.580;2022-08-21T15:42:17;30.90;99.90
35129;DHT22;21301;43.626;10.580;2022-08-21T15:44:44;30.70;99.90
35129;DHT22;21301;43.626;10.580;2022-08-21T15:47:15;30.80;99.90
35129;DHT22;21301;43.626;10.580;2022-08-21T15:49:42;30.90;99.90
35129;DHT22;21301;43.626;10.580;2022-08-21T15:52:15;30.70;99.90
35129;DHT22;21301;43.626;10.580;2022-08-21T15:54:41;30.50;99.90
35129;DHT22;21301;43.626;10.580;2022-08-21T15:57:09;30.40;99.90
35129;DHT22;21301;43.626;10.580;2022-08-21T15:59:44;30.30;99.90
35129;DHT22;21301;43.626;10.580;2022-08-21T16:02:15;30.20;99.90
35129;DHT22;21301;43.626;10.580;2022-08-21T16:04:42;29.90;99.90
35129;DHT22;21301;43.626;10.580;2022-08-21T16:07:08;29.80;99.90
35129;DHT22;21301;43.626;10.580;2022-08-21T16:09:34;29.80;99.90
35129;DHT22;21301;43.626;10.580;2022-08-21T16:12:01;29.90;99.90
35129;DHT22;21301;43.626;10.580;2022-08-21T16:14:28;29.70;99.90
35129;DHT22;21301;43.626;10.580;2022-08-21T16:16:55;29.60;99.90
35129;DHT22;21301;43.626;10.580;2022-08-21T16:19:21;29.50;99.90
35129;DHT22;21301;43.626;10.580;2022-08-21T16:21:47;29.40;99.90
35129;DHT22;21301;43.626;10.580;2022-08-21T16:24:13;29.20;99.90
35129;DHT22;21301;43.626;10.580;2022-08-21T16:26:39;29.10;99.90
35129;DHT22;21301;43.626;10.580;2022-08-21T16:29:05;28.90;99.90
35129;DHT22;21301;43.626;10.580;2022-08-21T16:31:33;29.00;99.90
35129;DHT22;21301;43.626;10.580;2022-08-21T16:34:00;29.10;99.90
35129;DHT22;21301;43.626;10.580;2022-08-21T16:36:26;29.00;99.90
35129;DHT22;21301;43.626;10.580;2022-08-21T16:38:55;29.10;99.90
35129;DHT22;21301;43.626;10.580;2022-08-21T16:41:23;29.00;99.90
35129;DHT22;21301;43.626;10.580;2022-08-21T16:43:51;29.10;99.90
35129;DHT22;21301;43.626;10.580;2022-08-21T16:46:18;29.00;99.90
35129;DHT22;21301;43.626;10.580;2022-08-21T16:48:44;28.90;99.90
35129;DHT22;21301;43.626;10.580;2022-08-21T16:51:11;28.60;99.90
35129;DHT22;21301;43.626;10.580;2022-08-21T16:53:37;28.50;99.90
35129;DHT22;21301;43.626;10.580;2022-08-21T16:56:04;28.50;99.90
35129;DHT22;21301;43.626;10.580;2022-08-21T16:58:33;28.40;99.90
35129;DHT22;21301;43.626;10.580;2022-08-21T17:01:03;28.30;99.90
35129;DHT22;21301;43.626;10.580;2022-08-21T17:03:36;28.20;99.90
35129;DHT22;21301;43.626;10.580;2022-08-21T17:06:05;28.10;99.90
35129;DHT22;21301;43.626;10.580;2022-08-21T17:08:30;28.00;99.90
35129;DHT22;21301;43.626;10.580;2022-08-21T17:10:57;27.90;99.90
35129;DHT22;21301;43.626;10.580;2022-08-21T17:13:24;27.80;99.90
35129;DHT22;21301;43.626;10.580;2022-08-21T17:15:51;27.90;99.90
35129;DHT22;21301;43.626;10.580;2022-08-21T17:18:19;27.90;99.90
35129;DHT22;21301;43.626;10.580;2022-08-21T17:20:46;27.90;99.90
35129;DHT22;21301;43.626;10.580;2022-08-21T17:23:14;28.00;99.90
35129;DHT22;21301;43.626;10.580;2022-08-21T17:25:43;28.10;99.90
35129;DHT22;21301;43.626;10.580;2022-08-21T17:28:17;27.90;99.90
35129;DHT22;21301;43.626;10.580;2022-08-21T17:30:44;27.90;99.90
35129;DHT22;21301;43.626;10.580;2022-08-21T17:33:14;28.00;99.90